sensor_id;sensor_type;location;lat;lon;timestamp;P1;durP1;ratioP1;P2;durP2;ratioP2
49540;SDS011;35432;43.566;1.398;2023-03-19T00:01:43;8.07;;;4.50;;
49540;SDS011;35432;43.566;1.398;2023-03-19T00:04:08;9.70;;;4.60;;
49540;SDS011;35432;43.566;1.398;2023-03-19T00:06:34;9.10;;;4.30;;
49540;SDS011;35432;43.566;1.398;2023-03-19T00:08:59;8.23;;;4.60;;
49540;SDS011;35432;43.566;1.398;2023-03-19T00:11:25;10.87;;;5.37;;
49540;SDS011;35432;43.566;1.398;2023-03-19T00:13:51;8.95;;;5.18;;
49540;SDS011;35432;43.566;1.398;2023-03-19T00:16:27;11.80;;;5.63;;
49540;SDS011;35432;43.566;1.398;2023-03-19T00:18:52;17.15;;;7.70;;
49540;SDS011;35432;43.566;1.398;2023-03-19T00:21:19;19.05;;;10.48;;
49540;SDS011;35432;43.566;1.398;2023-03-19T00:23:45;19.80;;;9.93;;
49540;SDS011;35432;43.566;1.398;2023-03-19T00:26:11;16.60;;;8.70;;
49540;SDS011;35432;43.566;1.398;2023-03-19T00:28:36;15.00;;;7.55;;
49540;SDS011;35432;43.566;1.398;2023-03-19T00:31:06;14.23;;;7.73;;
49540;SDS011;35432;43.566;1.398;2023-03-19T00:33:33;13.68;;;7.18;;
49540;SDS011;35432;43.566;1.398;2023-03-19T00:35:58;12.03;;;6.10;;
49540;SDS011;35432;43.566;1.398;2023-03-19T00:38:24;13.60;;;5.97;;
49540;SDS011;35432;43.566;1.398;2023-03-19T00:40:52;12.80;;;6.53;;
49540;SDS011;35432;43.566;1.398;2023-03-19T00:43:17;9.50;;;4.97;;
49540;SDS011;35432;43.566;1.398;2023-03-19T00:45:43;12.40;;;7.33;;
49540;SDS011;35432;43.566;1.398;2023-03-19T00:48:08;11.30;;;6.80;;
49540;SDS011;35432;43.566;1.398;2023-03-19T00:50:33;13.85;;;7.15;;
49540;SDS011;35432;43.566;1.398;2023-03-19T00:52:59;11.70;;;7.23;;
49540;SDS011;35432;43.566;1.398;2023-03-19T00:55:25;11.85;;;7.43;;
49540;SDS011;35432;43.566;1.398;2023-03-19T00:57:51;12.18;;;6.65;;
49540;SDS011;35432;43.566;1.398;2023-03-19T01:00:17;12.13;;;6.30;;
49540;SDS011;35432;43.566;1.398;2023-03-19T01:02:43;9.18;;;3.42;;
49540;SDS011;35432;43.566;1.398;2023-03-19T01:05:09;6.97;;;3.27;;
49540;SDS011;35432;43.566;1.398;2023-03-19T01:07:34;5.97;;;3.05;;
49540;SDS011;35432;43.566;1.398;2023-03-19T01:10:00;5.57;;;3.10;;
49540;SDS011;35432;43.566;1.398;2023-03-19T01:12:25;7.70;;;2.83;;
49540;SDS011;35432;43.566;1.398;2023-03-19T01:14:50;5.60;;;2.30;;
49540;SDS011;35432;43.566;1.398;2023-03-19T01:17:16;6.72;;;2.00;;
49540;SDS011;35432;43.566;1.398;2023-03-19T01:19:41;6.23;;;1.73;;
49540;SDS011;35432;43.566;1.398;2023-03-19T01:22:07;7.50;;;1.73;;
49540;SDS011;35432;43.566;1.398;2023-03-19T01:24:33;6.00;;;1.40;;
49540;SDS011;35432;43.566;1.398;2023-03-19T01:26:58;4.73;;;1.80;;
49540;SDS011;35432;43.566;1.398;2023-03-19T01:29:24;6.68;;;2.50;;
49540;SDS011;35432;43.566;1.398;2023-03-19T01:31:50;7.23;;;1.83;;
49540;SDS011;35432;43.566;1.398;2023-03-19T01:34:16;5.77;;;1.60;;
49540;SDS011;35432;43.566;1.398;2023-03-19T01:36:41;5.57;;;1.30;;
49540;SDS011;35432;43.566;1.398;2023-03-19T01:39:06;5.40;;;1.30;;
49540;SDS011;35432;43.566;1.398;2023-03-19T01:41:32;5.65;;;1.20;;
49540;SDS011;35432;43.566;1.398;2023-03-19T01:43:57;4.87;;;1.10;;
49540;SDS011;35432;43.566;1.398;2023-03-19T01:48:52;5.18;;;0.80;;
49540;SDS011;35432;43.566;1.398;2023-03-19T01:51:21;4.28;;;0.85;;
49540;SDS011;35432;43.566;1.398;2023-03-19T01:53:54;6.57;;;0.90;;
49540;SDS011;35432;43.566;1.398;2023-03-19T01:56:23;4.38;;;0.77;;
49540;SDS011;35432;43.566;1.398;2023-03-19T01:59:02;4.07;;;0.90;;
49540;SDS011;35432;43.566;1.398;2023-03-19T02:01:33;3.47;;;0.80;;
49540;SDS011;35432;43.566;1.398;2023-03-19T02:04:04;3.92;;;0.60;;
49540;SDS011;35432;43.566;1.398;2023-03-19T02:06:31;6.73;;;0.90;;
49540;SDS011;35432;43.566;1.398;2023-03-19T02:08:57;4.38;;;0.85;;
49540;SDS011;35432;43.566;1.398;2023-03-19T02:11:23;3.47;;;0.60;;
49540;SDS011;35432;43.566;1.398;2023-03-19T02:13:50;4.80;;;0.70;;
49540;SDS011;35432;43.566;1.398;2023-03-19T02:16:15;4.90;;;0.80;;
49540;SDS011;35432;43.566;1.398;2023-03-19T02:18:42;4.18;;;0.77;;
49540;SDS011;35432;43.566;1.398;2023-03-19T02:21:09;4.85;;;0.85;;
49540;SDS011;35432;43.566;1.398;2023-03-19T02:26:14;4.40;;;0.70;;
49540;SDS011;35432;43.566;1.398;2023-03-19T02:28:42;4.87;;;0.80;;
49540;SDS011;35432;43.566;1.398;2023-03-19T02:31:10;6.45;;;0.95;;
49540;SDS011;35432;43.566;1.398;2023-03-19T02:33:36;7.97;;;0.90;;
49540;SDS011;35432;43.566;1.398;2023-03-19T02:36:03;5.53;;;0.80;;
49540;SDS011;35432;43.566;1.398;2023-03-19T02:38:31;6.17;;;1.17;;
49540;SDS011;35432;43.566;1.398;2023-03-19T02:41:04;4.82;;;0.70;;
49540;SDS011;35432;43.566;1.398;2023-03-19T02:43:32;3.35;;;0.80;;
49540;SDS011;35432;43.566;1.398;2023-03-19T02:46:00;6.00;;;0.75;;
49540;SDS011;35432;43.566;1.398;2023-03-19T02:48:27;7.63;;;1.23;;
49540;SDS011;35432;43.566;1.398;2023-03-19T02:50:52;3.70;;;0.77;;
49540;SDS011;35432;43.566;1.398;2023-03-19T02:53:18;4.88;;;0.77;;
49540;SDS011;35432;43.566;1.398;2023-03-19T02:55:43;4.70;;;0.80;;
49540;SDS011;35432;43.566;1.398;2023-03-19T02:58:09;3.78;;;0.88;;
49540;SDS011;35432;43.566;1.398;2023-03-19T03:00:36;4.73;;;0.80;;
49540;SDS011;35432;43.566;1.398;2023-03-19T03:03:02;4.40;;;0.90;;
49540;SDS011;35432;43.566;1.398;2023-03-19T03:05:30;4.05;;;0.68;;
49540;SDS011;35432;43.566;1.398;2023-03-19T03:07:56;3.80;;;0.70;;
49540;SDS011;35432;43.566;1.398;2023-03-19T03:10:22;5.70;;;0.98;;
49540;SDS011;35432;43.566;1.398;2023-03-19T03:12:47;5.40;;;0.70;;
49540;SDS011;35432;43.566;1.398;2023-03-19T03:15:13;3.67;;;0.77;;
49540;SDS011;35432;43.566;1.398;2023-03-19T03:17:39;3.40;;;0.90;;
49540;SDS011;35432;43.566;1.398;2023-03-19T03:20:06;3.97;;;0.77;;
49540;SDS011;35432;43.566;1.398;2023-03-19T03:22:33;5.03;;;0.80;;
49540;SDS011;35432;43.566;1.398;2023-03-19T03:24:59;4.33;;;0.63;;
49540;SDS011;35432;43.566;1.398;2023-03-19T03:27:25;4.05;;;0.68;;
49540;SDS011;35432;43.566;1.398;2023-03-19T03:29:51;4.57;;;0.60;;
49540;SDS011;35432;43.566;1.398;2023-03-19T03:32:16;4.18;;;0.60;;
49540;SDS011;35432;43.566;1.398;2023-03-19T03:34:42;4.57;;;0.60;;
49540;SDS011;35432;43.566;1.398;2023-03-19T03:37:07;3.70;;;0.60;;
49540;SDS011;35432;43.566;1.398;2023-03-19T03:39:33;6.50;;;0.82;;
49540;SDS011;35432;43.566;1.398;2023-03-19T03:41:58;5.67;;;0.90;;
49540;SDS011;35432;43.566;1.398;2023-03-19T03:44:24;3.93;;;0.80;;
49540;SDS011;35432;43.566;1.398;2023-03-19T03:46:50;3.75;;;0.70;;
49540;SDS011;35432;43.566;1.398;2023-03-19T03:49:15;3.83;;;0.73;;
49540;SDS011;35432;43.566;1.398;2023-03-19T03:51:41;6.40;;;0.70;;
49540;SDS011;35432;43.566;1.398;2023-03-19T03:54:06;3.23;;;0.70;;
49540;SDS011;35432;43.566;1.398;2023-03-19T03:56:32;5.93;;;0.70;;
49540;SDS011;35432;43.566;1.398;2023-03-19T03:58:58;4.85;;;0.60;;
49540;SDS011;35432;43.566;1.398;2023-03-19T04:01:23;3.00;;;0.50;;
49540;SDS011;35432;43.566;1.398;2023-03-19T04:03:48;5.20;;;0.60;;
49540;SDS011;35432;43.566;1.398;2023-03-19T04:06:14;4.85;;;0.70;;
49540;SDS011;35432;43.566;1.398;2023-03-19T04:08:42;5.33;;;0.80;;
49540;SDS011;35432;43.566;1.398;2023-03-19T04:11:08;5.80;;;0.80;;
49540;SDS011;35432;43.566;1.398;2023-03-19T04:13:33;5.83;;;0.50;;
49540;SDS011;35432;43.566;1.398;2023-03-19T04:16:08;6.50;;;0.70;;
49540;SDS011;35432;43.566;1.398;2023-03-19T04:18:34;5.15;;;0.50;;
49540;SDS011;35432;43.566;1.398;2023-03-19T04:21:01;3.25;;;0.70;;
49540;SDS011;35432;43.566;1.398;2023-03-19T04:23:28;4.97;;;1.00;;
49540;SDS011;35432;43.566;1.398;2023-03-19T04:25:57;5.28;;;1.00;;
49540;SDS011;35432;43.566;1.398;2023-03-19T04:28:23;4.20;;;0.90;;
49540;SDS011;35432;43.566;1.398;2023-03-19T04:30:49;4.83;;;0.80;;
49540;SDS011;35432;43.566;1.398;2023-03-19T04:33:14;6.23;;;0.70;;
49540;SDS011;35432;43.566;1.398;2023-03-19T04:35:40;4.53;;;0.60;;
49540;SDS011;35432;43.566;1.398;2023-03-19T04:38:05;3.43;;;0.60;;
49540;SDS011;35432;43.566;1.398;2023-03-19T04:40:31;4.45;;;0.75;;
49540;SDS011;35432;43.566;1.398;2023-03-19T04:42:56;6.30;;;0.73;;
49540;SDS011;35432;43.566;1.398;2023-03-19T04:45:22;4.13;;;0.60;;
49540;SDS011;35432;43.566;1.398;2023-03-19T04:47:47;5.63;;;0.60;;
49540;SDS011;35432;43.566;1.398;2023-03-19T04:50:13;5.70;;;0.60;;
49540;SDS011;35432;43.566;1.398;2023-03-19T04:52:39;5.07;;;0.80;;
49540;SDS011;35432;43.566;1.398;2023-03-19T04:55:05;3.77;;;0.60;;
49540;SDS011;35432;43.566;1.398;2023-03-19T04:57:31;4.72;;;0.50;;
49540;SDS011;35432;43.566;1.398;2023-03-19T04:59:57;7.00;;;0.80;;
49540;SDS011;35432;43.566;1.398;2023-03-19T05:02:22;5.32;;;0.57;;
49540;SDS011;35432;43.566;1.398;2023-03-19T05:04:48;3.53;;;0.40;;
49540;SDS011;35432;43.566;1.398;2023-03-19T05:07:14;3.73;;;0.50;;
49540;SDS011;35432;43.566;1.398;2023-03-19T05:09:39;3.90;;;0.65;;
49540;SDS011;35432;43.566;1.398;2023-03-19T05:12:07;5.77;;;0.70;;
49540;SDS011;35432;43.566;1.398;2023-03-19T05:14:32;7.00;;;1.30;;
49540;SDS011;35432;43.566;1.398;2023-03-19T05:16:58;9.80;;;2.37;;
49540;SDS011;35432;43.566;1.398;2023-03-19T05:19:23;8.73;;;1.40;;
49540;SDS011;35432;43.566;1.398;2023-03-19T05:21:49;6.30;;;1.17;;
49540;SDS011;35432;43.566;1.398;2023-03-19T05:24:15;5.23;;;1.30;;
49540;SDS011;35432;43.566;1.398;2023-03-19T05:26:40;4.77;;;0.90;;
49540;SDS011;35432;43.566;1.398;2023-03-19T05:29:05;5.70;;;1.03;;
49540;SDS011;35432;43.566;1.398;2023-03-19T05:31:34;5.20;;;1.05;;
49540;SDS011;35432;43.566;1.398;2023-03-19T05:34:01;7.13;;;1.20;;
49540;SDS011;35432;43.566;1.398;2023-03-19T05:36:26;5.55;;;2.05;;
49540;SDS011;35432;43.566;1.398;2023-03-19T05:38:52;7.77;;;1.73;;
49540;SDS011;35432;43.566;1.398;2023-03-19T05:41:17;5.87;;;1.33;;
49540;SDS011;35432;43.566;1.398;2023-03-19T05:43:42;5.40;;;1.20;;
49540;SDS011;35432;43.566;1.398;2023-03-19T05:46:08;6.37;;;0.77;;
49540;SDS011;35432;43.566;1.398;2023-03-19T05:48:33;4.47;;;0.87;;
49540;SDS011;35432;43.566;1.398;2023-03-19T05:50:58;4.93;;;1.03;;
49540;SDS011;35432;43.566;1.398;2023-03-19T05:53:24;3.67;;;0.90;;
49540;SDS011;35432;43.566;1.398;2023-03-19T05:55:50;4.57;;;0.75;;
49540;SDS011;35432;43.566;1.398;2023-03-19T05:58:15;4.47;;;0.73;;
49540;SDS011;35432;43.566;1.398;2023-03-19T06:00:41;4.50;;;0.70;;
49540;SDS011;35432;43.566;1.398;2023-03-19T06:03:06;4.60;;;0.68;;
49540;SDS011;35432;43.566;1.398;2023-03-19T06:05:32;5.30;;;0.70;;
49540;SDS011;35432;43.566;1.398;2023-03-19T06:07:58;6.13;;;0.68;;
49540;SDS011;35432;43.566;1.398;2023-03-19T06:10:23;3.43;;;0.53;;
49540;SDS011;35432;43.566;1.398;2023-03-19T06:12:49;3.53;;;0.50;;
49540;SDS011;35432;43.566;1.398;2023-03-19T06:15:15;4.78;;;0.73;;
49540;SDS011;35432;43.566;1.398;2023-03-19T06:17:40;3.83;;;0.50;;
49540;SDS011;35432;43.566;1.398;2023-03-19T06:20:08;4.03;;;0.60;;
49540;SDS011;35432;43.566;1.398;2023-03-19T06:22:35;3.78;;;0.60;;
49540;SDS011;35432;43.566;1.398;2023-03-19T06:25:00;3.97;;;0.60;;
49540;SDS011;35432;43.566;1.398;2023-03-19T06:27:26;6.18;;;0.68;;
49540;SDS011;35432;43.566;1.398;2023-03-19T06:29:52;4.23;;;0.77;;
49540;SDS011;35432;43.566;1.398;2023-03-19T06:32:17;4.45;;;0.50;;
49540;SDS011;35432;43.566;1.398;2023-03-19T06:34:42;3.53;;;0.60;;
49540;SDS011;35432;43.566;1.398;2023-03-19T06:37:08;4.43;;;0.60;;
49540;SDS011;35432;43.566;1.398;2023-03-19T06:39:33;4.17;;;0.80;;
49540;SDS011;35432;43.566;1.398;2023-03-19T06:41:59;5.60;;;0.60;;
49540;SDS011;35432;43.566;1.398;2023-03-19T06:44:24;4.45;;;0.70;;
49540;SDS011;35432;43.566;1.398;2023-03-19T06:46:50;4.20;;;0.60;;
49540;SDS011;35432;43.566;1.398;2023-03-19T06:49:15;3.20;;;0.60;;
49540;SDS011;35432;43.566;1.398;2023-03-19T06:51:41;3.88;;;0.60;;
49540;SDS011;35432;43.566;1.398;2023-03-19T06:54:06;5.50;;;0.60;;
49540;SDS011;35432;43.566;1.398;2023-03-19T06:56:32;3.30;;;0.70;;
49540;SDS011;35432;43.566;1.398;2023-03-19T06:58:57;3.73;;;1.03;;
49540;SDS011;35432;43.566;1.398;2023-03-19T07:01:22;3.30;;;0.70;;
49540;SDS011;35432;43.566;1.398;2023-03-19T07:03:48;2.33;;;0.50;;
49540;SDS011;35432;43.566;1.398;2023-03-19T07:06:13;3.20;;;0.93;;
49540;SDS011;35432;43.566;1.398;2023-03-19T07:08:38;4.60;;;0.50;;
49540;SDS011;35432;43.566;1.398;2023-03-19T07:11:09;2.28;;;0.40;;
49540;SDS011;35432;43.566;1.398;2023-03-19T07:13:36;2.58;;;0.50;;
49540;SDS011;35432;43.566;1.398;2023-03-19T07:16:02;3.23;;;0.60;;
49540;SDS011;35432;43.566;1.398;2023-03-19T07:18:27;4.05;;;0.75;;
49540;SDS011;35432;43.566;1.398;2023-03-19T07:20:52;5.00;;;1.20;;
49540;SDS011;35432;43.566;1.398;2023-03-19T07:23:18;5.50;;;0.67;;
49540;SDS011;35432;43.566;1.398;2023-03-19T07:25:43;4.85;;;0.60;;
49540;SDS011;35432;43.566;1.398;2023-03-19T07:28:09;4.17;;;0.93;;
49540;SDS011;35432;43.566;1.398;2023-03-19T07:30:35;3.70;;;0.60;;
49540;SDS011;35432;43.566;1.398;2023-03-19T07:33:02;5.40;;;0.57;;
49540;SDS011;35432;43.566;1.398;2023-03-19T07:35:27;4.00;;;0.55;;
49540;SDS011;35432;43.566;1.398;2023-03-19T07:37:53;3.93;;;0.47;;
49540;SDS011;35432;43.566;1.398;2023-03-19T07:40:18;2.57;;;0.50;;
49540;SDS011;35432;43.566;1.398;2023-03-19T07:42:43;4.07;;;0.47;;
49540;SDS011;35432;43.566;1.398;2023-03-19T07:45:09;3.55;;;0.43;;
49540;SDS011;35432;43.566;1.398;2023-03-19T07:47:34;4.50;;;0.60;;
49540;SDS011;35432;43.566;1.398;2023-03-19T07:50:00;3.50;;;0.57;;
49540;SDS011;35432;43.566;1.398;2023-03-19T07:52:25;2.40;;;0.47;;
49540;SDS011;35432;43.566;1.398;2023-03-19T07:54:51;3.93;;;0.43;;
49540;SDS011;35432;43.566;1.398;2023-03-19T07:57:17;2.70;;;0.50;;
49540;SDS011;35432;43.566;1.398;2023-03-19T07:59:43;2.72;;;0.20;;
49540;SDS011;35432;43.566;1.398;2023-03-19T08:02:12;4.30;;;0.43;;
49540;SDS011;35432;43.566;1.398;2023-03-19T08:04:37;1.95;;;0.30;;
49540;SDS011;35432;43.566;1.398;2023-03-19T08:07:03;2.22;;;0.32;;
49540;SDS011;35432;43.566;1.398;2023-03-19T08:09:29;2.47;;;0.30;;
49540;SDS011;35432;43.566;1.398;2023-03-19T08:11:54;2.10;;;0.30;;
49540;SDS011;35432;43.566;1.398;2023-03-19T08:14:20;3.37;;;0.30;;
49540;SDS011;35432;43.566;1.398;2023-03-19T08:16:47;2.08;;;0.30;;
49540;SDS011;35432;43.566;1.398;2023-03-19T08:19:12;3.00;;;0.30;;
49540;SDS011;35432;43.566;1.398;2023-03-19T08:21:38;2.30;;;0.40;;
49540;SDS011;35432;43.566;1.398;2023-03-19T08:24:03;4.27;;;0.30;;
49540;SDS011;35432;43.566;1.398;2023-03-19T08:26:29;2.58;;;0.38;;
49540;SDS011;35432;43.566;1.398;2023-03-19T08:28:57;3.08;;;0.30;;
49540;SDS011;35432;43.566;1.398;2023-03-19T08:31:22;1.93;;;0.40;;
49540;SDS011;35432;43.566;1.398;2023-03-19T08:33:48;1.90;;;0.40;;
49540;SDS011;35432;43.566;1.398;2023-03-19T08:36:13;2.77;;;0.40;;
49540;SDS011;35432;43.566;1.398;2023-03-19T08:38:39;2.50;;;0.30;;
49540;SDS011;35432;43.566;1.398;2023-03-19T08:41:06;2.90;;;0.35;;
49540;SDS011;35432;43.566;1.398;2023-03-19T08:43:33;2.80;;;0.30;;
49540;SDS011;35432;43.566;1.398;2023-03-19T08:46:00;3.47;;;0.30;;
49540;SDS011;35432;43.566;1.398;2023-03-19T08:48:26;3.33;;;0.30;;
49540;SDS011;35432;43.566;1.398;2023-03-19T08:50:53;2.47;;;0.30;;
49540;SDS011;35432;43.566;1.398;2023-03-19T08:53:20;3.10;;;0.40;;
49540;SDS011;35432;43.566;1.398;2023-03-19T08:55:50;4.20;;;0.50;;
49540;SDS011;35432;43.566;1.398;2023-03-19T08:58:22;3.47;;;0.40;;
49540;SDS011;35432;43.566;1.398;2023-03-19T09:00:49;3.30;;;0.52;;
49540;SDS011;35432;43.566;1.398;2023-03-19T09:03:15;3.33;;;0.47;;
49540;SDS011;35432;43.566;1.398;2023-03-19T09:05:41;2.58;;;0.40;;
49540;SDS011;35432;43.566;1.398;2023-03-19T09:08:07;4.07;;;0.50;;
49540;SDS011;35432;43.566;1.398;2023-03-19T09:10:32;3.70;;;0.40;;
49540;SDS011;35432;43.566;1.398;2023-03-19T09:12:58;4.17;;;0.40;;
49540;SDS011;35432;43.566;1.398;2023-03-19T09:15:24;3.72;;;0.43;;
49540;SDS011;35432;43.566;1.398;2023-03-19T09:17:50;2.17;;;0.37;;
49540;SDS011;35432;43.566;1.398;2023-03-19T09:20:15;2.85;;;0.40;;
49540;SDS011;35432;43.566;1.398;2023-03-19T09:22:40;3.30;;;0.47;;
49540;SDS011;35432;43.566;1.398;2023-03-19T09:25:06;2.37;;;0.50;;
49540;SDS011;35432;43.566;1.398;2023-03-19T09:27:32;2.72;;;0.30;;
49540;SDS011;35432;43.566;1.398;2023-03-19T09:29:57;4.30;;;0.40;;
49540;SDS011;35432;43.566;1.398;2023-03-19T09:32:23;2.90;;;0.82;;
49540;SDS011;35432;43.566;1.398;2023-03-19T09:34:49;3.87;;;0.50;;
49540;SDS011;35432;43.566;1.398;2023-03-19T09:37:14;4.07;;;0.30;;
49540;SDS011;35432;43.566;1.398;2023-03-19T09:39:40;3.33;;;0.30;;
49540;SDS011;35432;43.566;1.398;2023-03-19T09:44:52;2.42;;;0.50;;
49540;SDS011;35432;43.566;1.398;2023-03-19T09:50:04;2.72;;;0.40;;
49540;SDS011;35432;43.566;1.398;2023-03-19T09:52:45;3.13;;;0.40;;
49540;SDS011;35432;43.566;1.398;2023-03-19T09:55:15;3.03;;;0.30;;
49540;SDS011;35432;43.566;1.398;2023-03-19T09:57:44;4.67;;;0.43;;
49540;SDS011;35432;43.566;1.398;2023-03-19T10:02:50;2.25;;;0.30;;
49540;SDS011;35432;43.566;1.398;2023-03-19T10:11:03;3.13;;;0.30;;
49540;SDS011;35432;43.566;1.398;2023-03-19T10:13:37;2.35;;;0.30;;
49540;SDS011;35432;43.566;1.398;2023-03-19T10:16:12;3.10;;;0.47;;
49540;SDS011;35432;43.566;1.398;2023-03-19T10:18:46;1.67;;;0.30;;
49540;SDS011;35432;43.566;1.398;2023-03-19T10:21:21;4.18;;;0.47;;
49540;SDS011;35432;43.566;1.398;2023-03-19T10:26:23;2.15;;;0.38;;
49540;SDS011;35432;43.566;1.398;2023-03-19T10:29:06;3.42;;;0.50;;
49540;SDS011;35432;43.566;1.398;2023-03-19T10:39:29;2.08;;;0.45;;
49540;SDS011;35432;43.566;1.398;2023-03-19T10:44:49;2.63;;;0.50;;
49540;SDS011;35432;43.566;1.398;2023-03-19T10:47:18;1.53;;;0.30;;
49540;SDS011;35432;43.566;1.398;2023-03-19T10:49:46;3.05;;;0.30;;
49540;SDS011;35432;43.566;1.398;2023-03-19T10:52:16;2.00;;;0.30;;
49540;SDS011;35432;43.566;1.398;2023-03-19T10:54:56;4.35;;;0.30;;
49540;SDS011;35432;43.566;1.398;2023-03-19T10:57:27;2.25;;;0.30;;
49540;SDS011;35432;43.566;1.398;2023-03-19T10:59:55;1.57;;;0.30;;
49540;SDS011;35432;43.566;1.398;2023-03-19T11:02:28;3.08;;;0.38;;
49540;SDS011;35432;43.566;1.398;2023-03-19T11:05:05;2.13;;;0.30;;
49540;SDS011;35432;43.566;1.398;2023-03-19T11:08:00;2.88;;;0.40;;
49540;SDS011;35432;43.566;1.398;2023-03-19T11:10:28;2.85;;;0.50;;
49540;SDS011;35432;43.566;1.398;2023-03-19T11:13:02;6.43;;;0.60;;
49540;SDS011;35432;43.566;1.398;2023-03-19T11:15:33;3.72;;;0.40;;
49540;SDS011;35432;43.566;1.398;2023-03-19T11:18:22;3.38;;;0.40;;
49540;SDS011;35432;43.566;1.398;2023-03-19T11:21:07;2.20;;;0.30;;
49540;SDS011;35432;43.566;1.398;2023-03-19T11:23:45;3.50;;;0.60;;
49540;SDS011;35432;43.566;1.398;2023-03-19T11:26:20;2.07;;;0.30;;
49540;SDS011;35432;43.566;1.398;2023-03-19T11:28:49;2.55;;;0.50;;
49540;SDS011;35432;43.566;1.398;2023-03-19T11:31:29;2.63;;;0.60;;
49540;SDS011;35432;43.566;1.398;2023-03-19T11:34:20;3.50;;;0.60;;
49540;SDS011;35432;43.566;1.398;2023-03-19T11:56:27;11.63;;;3.05;;
49540;SDS011;35432;43.566;1.398;2023-03-19T12:12:35;6.30;;;1.00;;
49540;SDS011;35432;43.566;1.398;2023-03-19T12:18:00;29.52;;;5.85;;
49540;SDS011;35432;43.566;1.398;2023-03-19T12:21:10;17.98;;;5.00;;
49540;SDS011;35432;43.566;1.398;2023-03-19T12:26:19;6.83;;;1.40;;
49540;SDS011;35432;43.566;1.398;2023-03-19T12:34:47;21.27;;;6.43;;
49540;SDS011;35432;43.566;1.398;2023-03-19T12:37:26;43.53;;;12.18;;
49540;SDS011;35432;43.566;1.398;2023-03-19T12:42:26;43.72;;;11.63;;
49540;SDS011;35432;43.566;1.398;2023-03-19T12:44:57;8.98;;;2.00;;
49540;SDS011;35432;43.566;1.398;2023-03-19T12:47:30;24.60;;;9.15;;
49540;SDS011;35432;43.566;1.398;2023-03-19T12:50:06;9.25;;;1.80;;
49540;SDS011;35432;43.566;1.398;2023-03-19T12:52:39;9.03;;;2.20;;
49540;SDS011;35432;43.566;1.398;2023-03-19T12:57:53;6.45;;;1.10;;
49540;SDS011;35432;43.566;1.398;2023-03-19T13:03:22;3.03;;;0.60;;
49540;SDS011;35432;43.566;1.398;2023-03-19T13:06:05;1.83;;;0.30;;
49540;SDS011;35432;43.566;1.398;2023-03-19T13:08:44;3.17;;;0.40;;
49540;SDS011;35432;43.566;1.398;2023-03-19T13:11:19;2.50;;;0.45;;
49540;SDS011;35432;43.566;1.398;2023-03-19T13:19:25;1.57;;;0.20;;
49540;SDS011;35432;43.566;1.398;2023-03-19T13:22:18;2.50;;;0.40;;
49540;SDS011;35432;43.566;1.398;2023-03-19T13:24:49;3.25;;;0.57;;
49540;SDS011;35432;43.566;1.398;2023-03-19T13:30:30;2.40;;;0.30;;
49540;SDS011;35432;43.566;1.398;2023-03-19T13:32:46;4.67;;;0.40;;
49540;SDS011;35432;43.566;1.398;2023-03-19T13:37:44;2.13;;;0.30;;
49540;SDS011;35432;43.566;1.398;2023-03-19T13:40:57;3.05;;;0.40;;
49540;SDS011;35432;43.566;1.398;2023-03-19T13:43:22;2.80;;;0.30;;
49540;SDS011;35432;43.566;1.398;2023-03-19T13:53:54;2.25;;;0.22;;
49540;SDS011;35432;43.566;1.398;2023-03-19T14:02:47;1.48;;;0.28;;
49540;SDS011;35432;43.566;1.398;2023-03-19T14:05:00;2.67;;;0.30;;
49540;SDS011;35432;43.566;1.398;2023-03-19T14:07:32;3.05;;;0.32;;
49540;SDS011;35432;43.566;1.398;2023-03-19T14:12:33;6.00;;;0.40;;
49540;SDS011;35432;43.566;1.398;2023-03-19T14:17:34;2.72;;;0.30;;
49540;SDS011;35432;43.566;1.398;2023-03-19T14:22:38;1.63;;;0.20;;
49540;SDS011;35432;43.566;1.398;2023-03-19T14:27:48;1.77;;;0.20;;
49540;SDS011;35432;43.566;1.398;2023-03-19T14:30:57;1.85;;;0.20;;
49540;SDS011;35432;43.566;1.398;2023-03-19T14:36:11;1.40;;;0.20;;
49540;SDS011;35432;43.566;1.398;2023-03-19T14:38:42;1.92;;;0.30;;
49540;SDS011;35432;43.566;1.398;2023-03-19T14:41:16;2.25;;;0.30;;
49540;SDS011;35432;43.566;1.398;2023-03-19T14:52:16;1.98;;;0.30;;
49540;SDS011;35432;43.566;1.398;2023-03-19T14:57:49;2.58;;;0.47;;
49540;SDS011;35432;43.566;1.398;2023-03-19T15:00:15;1.50;;;0.20;;
49540;SDS011;35432;43.566;1.398;2023-03-19T15:02:43;1.50;;;0.30;;
49540;SDS011;35432;43.566;1.398;2023-03-19T15:07:44;1.67;;;0.20;;
49540;SDS011;35432;43.566;1.398;2023-03-19T15:18:37;2.60;;;0.20;;
49540;SDS011;35432;43.566;1.398;2023-03-19T15:21:03;2.25;;;0.40;;
49540;SDS011;35432;43.566;1.398;2023-03-19T15:24:12;1.55;;;0.20;;
49540;SDS011;35432;43.566;1.398;2023-03-19T15:26:39;2.10;;;0.28;;
49540;SDS011;35432;43.566;1.398;2023-03-19T15:29:05;2.00;;;0.30;;
49540;SDS011;35432;43.566;1.398;2023-03-19T15:31:49;2.10;;;0.25;;
49540;SDS011;35432;43.566;1.398;2023-03-19T15:34:18;3.10;;;0.43;;
49540;SDS011;35432;43.566;1.398;2023-03-19T15:36:45;5.33;;;0.40;;
49540;SDS011;35432;43.566;1.398;2023-03-19T15:39:12;2.97;;;0.60;;
49540;SDS011;35432;43.566;1.398;2023-03-19T15:41:43;3.42;;;0.30;;
49540;SDS011;35432;43.566;1.398;2023-03-19T15:44:17;2.28;;;0.35;;
49540;SDS011;35432;43.566;1.398;2023-03-19T15:46:50;6.75;;;0.60;;
49540;SDS011;35432;43.566;1.398;2023-03-19T15:49:20;2.50;;;0.30;;
49540;SDS011;35432;43.566;1.398;2023-03-19T15:51:50;3.30;;;0.50;;
49540;SDS011;35432;43.566;1.398;2023-03-19T15:54:20;2.60;;;0.47;;
49540;SDS011;35432;43.566;1.398;2023-03-19T15:56:47;1.85;;;0.30;;
49540;SDS011;35432;43.566;1.398;2023-03-19T15:59:15;1.98;;;0.30;;
49540;SDS011;35432;43.566;1.398;2023-03-19T16:01:42;2.03;;;0.30;;
49540;SDS011;35432;43.566;1.398;2023-03-19T16:04:12;1.20;;;0.20;;
49540;SDS011;35432;43.566;1.398;2023-03-19T16:06:40;1.85;;;0.30;;
49540;SDS011;35432;43.566;1.398;2023-03-19T16:09:16;1.87;;;0.30;;
49540;SDS011;35432;43.566;1.398;2023-03-19T16:11:47;1.70;;;0.20;;
49540;SDS011;35432;43.566;1.398;2023-03-19T16:16:39;1.53;;;0.23;;
49540;SDS011;35432;43.566;1.398;2023-03-19T16:19:25;1.65;;;0.20;;
49540;SDS011;35432;43.566;1.398;2023-03-19T16:22:02;2.43;;;0.30;;
49540;SDS011;35432;43.566;1.398;2023-03-19T16:24:36;1.70;;;0.30;;
49540;SDS011;35432;43.566;1.398;2023-03-19T16:27:05;2.55;;;0.30;;
49540;SDS011;35432;43.566;1.398;2023-03-19T16:29:39;3.00;;;0.40;;
49540;SDS011;35432;43.566;1.398;2023-03-19T16:32:27;1.40;;;0.20;;
49540;SDS011;35432;43.566;1.398;2023-03-19T16:34:54;2.67;;;0.40;;
49540;SDS011;35432;43.566;1.398;2023-03-19T16:42:38;4.70;;;0.80;;
49540;SDS011;35432;43.566;1.398;2023-03-19T16:47:40;3.93;;;0.70;;
49540;SDS011;35432;43.566;1.398;2023-03-19T16:50:06;4.35;;;1.30;;
49540;SDS011;35432;43.566;1.398;2023-03-19T16:52:32;3.50;;;0.82;;
49540;SDS011;35432;43.566;1.398;2023-03-19T16:55:00;2.88;;;0.50;;
49540;SDS011;35432;43.566;1.398;2023-03-19T16:57:27;3.42;;;0.82;;
49540;SDS011;35432;43.566;1.398;2023-03-19T16:59:53;6.33;;;1.50;;
49540;SDS011;35432;43.566;1.398;2023-03-19T17:02:18;3.67;;;0.70;;
49540;SDS011;35432;43.566;1.398;2023-03-19T17:04:45;2.60;;;0.43;;
49540;SDS011;35432;43.566;1.398;2023-03-19T17:07:10;2.77;;;0.40;;
49540;SDS011;35432;43.566;1.398;2023-03-19T17:09:36;2.75;;;0.30;;
49540;SDS011;35432;43.566;1.398;2023-03-19T17:12:02;4.65;;;1.00;;
49540;SDS011;35432;43.566;1.398;2023-03-19T17:14:31;2.85;;;0.50;;
49540;SDS011;35432;43.566;1.398;2023-03-19T17:16:57;4.20;;;0.87;;
49540;SDS011;35432;43.566;1.398;2023-03-19T17:19:24;3.75;;;0.60;;
49540;SDS011;35432;43.566;1.398;2023-03-19T17:21:53;1.92;;;0.30;;
49540;SDS011;35432;43.566;1.398;2023-03-19T17:24:26;4.32;;;0.50;;
49540;SDS011;35432;43.566;1.398;2023-03-19T17:26:55;2.95;;;0.40;;
49540;SDS011;35432;43.566;1.398;2023-03-19T17:29:25;3.27;;;0.60;;